createdAt,value
2017-06-30T00:00:53.528Z,993.23
2017-06-30T00:10:53.796Z,993.21
2017-06-30T00:20:53.453Z,993.25
2017-06-30T00:30:53.507Z,993.45
2017-06-30T00:40:53.471Z,993.4
2017-06-30T00:50:53.529Z,993.45
2017-06-30T01:00:53.491Z,993.44
2017-06-30T01:10:53.442Z,993.43
2017-06-30T01:20:53.517Z,993.34
2017-06-30T01:30:53.483Z,993.35
2017-06-30T01:40:53.458Z,993.39
2017-06-30T01:50:53.503Z,993.41
2017-06-30T02:00:53.468Z,993.38
2017-06-30T02:10:53.525Z,993.54
2017-06-30T02:20:53.510Z,993.5
2017-06-30T02:30:53.436Z,993.58
2017-06-30T02:40:53.606Z,993.63
2017-06-30T02:50:53.475Z,993.69
2017-06-30T03:00:53.535Z,993.83
2017-06-30T03:10:53.503Z,993.85
2017-06-30T03:20:53.453Z,993.92
2017-06-30T03:30:53.520Z,993.9
2017-06-30T03:40:53.487Z,993.96
2017-06-30T03:50:53.433Z,994
2017-06-30T04:00:53.515Z,994.06
2017-06-30T04:10:53.468Z,994.17
2017-06-30T04:20:53.532Z,994.22
2017-06-30T04:30:53.496Z,994.23
2017-06-30T04:40:53.449Z,994.29
2017-06-30T04:50:53.514Z,994.48
2017-06-30T05:00:53.475Z,994.44
2017-06-30T05:10:53.544Z,994.58
2017-06-30T05:20:53.500Z,994.55
2017-06-30T05:30:53.471Z,994.62
2017-06-30T05:40:53.529Z,994.77
2017-06-30T05:50:53.487Z,994.86
2017-06-30T06:00:53.455Z,995.01
2017-06-30T06:10:53.512Z,995.13
2017-06-30T06:20:53.472Z,995.15
2017-06-30T06:30:53.544Z,995.17
2017-06-30T06:40:53.506Z,995.22
2017-06-30T06:50:53.489Z,995.35
2017-06-30T07:00:53.525Z,995.42
2017-06-30T07:10:54.465Z,995.46
2017-06-30T07:20:53.525Z,995.5
2017-06-30T07:30:53.459Z,995.51
2017-06-30T07:40:53.629Z,995.59
2017-06-30T07:50:53.486Z,995.62
2017-06-30T08:00:55.496Z,995.59
2017-06-30T08:10:53.510Z,995.66
2017-06-30T08:20:53.481Z,995.69
2017-06-30T08:30:53.550Z,995.86
2017-06-30T08:40:53.507Z,995.74
2017-06-30T08:50:53.483Z,995.63
2017-06-30T09:00:53.551Z,995.66
2017-06-30T09:10:53.471Z,995.72
2017-06-30T09:20:53.459Z,995.66
2017-06-30T09:30:53.453Z,995.79
2017-06-30T09:40:53.455Z,995.81
2017-06-30T09:50:53.472Z,995.85
2017-06-30T10:00:53.457Z,995.82
2017-06-30T10:10:53.478Z,995.98
2017-06-30T10:20:53.489Z,996.02
2017-06-30T10:30:53.486Z,996.07
2017-06-30T10:40:53.472Z,996.1
2017-06-30T10:50:53.500Z,996.16
2017-06-30T11:00:53.468Z,996.22
2017-06-30T11:10:53.470Z,996.13
2017-06-30T11:20:53.489Z,996.11
2017-06-30T11:30:53.482Z,996.1
2017-06-30T11:40:53.486Z,996.05
2017-06-30T11:50:53.481Z,996.02
2017-06-30T12:00:53.497Z,996.01
2017-06-30T12:10:53.490Z,995.97
2017-06-30T12:20:53.496Z,995.94
2017-06-30T12:30:53.490Z,995.97
2017-06-30T12:40:53.486Z,996.03
2017-06-30T12:50:53.497Z,996.08
2017-06-30T13:00:53.497Z,995.94
2017-06-30T13:10:53.490Z,996.11
2017-06-30T13:20:53.529Z,996.22
2017-06-30T13:30:53.598Z,996.17
2017-06-30T13:40:53.567Z,996.07
2017-06-30T13:50:53.628Z,996.04
2017-06-30T14:00:53.576Z,996.03
2017-06-30T14:10:53.544Z,996.02
2017-06-30T14:20:53.519Z,996.25
2017-06-30T14:30:53.505Z,996.31
2017-06-30T14:40:53.525Z,996.25
2017-06-30T14:50:53.522Z,996.38
2017-06-30T15:00:53.542Z,996.31
2017-06-30T15:10:53.522Z,996.39
2017-06-30T15:20:53.515Z,996.3
2017-06-30T15:30:53.521Z,996.31
2017-06-30T15:40:53.531Z,996.31
2017-06-30T15:50:53.600Z,996.33
2017-06-30T16:00:53.528Z,996.32
2017-06-30T16:10:53.530Z,996.39
2017-06-30T16:20:53.541Z,996.28
2017-06-30T16:30:53.608Z,996.32
2017-06-30T16:40:53.588Z,996.38
2017-06-30T16:50:53.638Z,996.41
2017-06-30T17:00:53.551Z,996.86
2017-06-30T17:10:53.544Z,997.16
2017-06-30T17:20:53.624Z,997.16
2017-06-30T17:30:53.611Z,997.26
2017-06-30T17:40:53.647Z,997.18
2017-06-30T17:50:53.531Z,997.06
2017-06-30T18:00:53.541Z,997.14
2017-06-30T18:10:53.550Z,997.26
2017-06-30T18:20:53.550Z,997.34
2017-06-30T18:30:53.540Z,997.35
2017-06-30T18:40:53.550Z,997.33
2017-06-30T18:50:53.542Z,997.35
2017-06-30T19:00:53.548Z,997.51
2017-06-30T19:10:53.539Z,997.63
2017-06-30T19:20:53.541Z,997.54
2017-06-30T19:30:53.544Z,997.48
2017-06-30T19:40:53.546Z,997.48
2017-06-30T19:50:53.548Z,997.48
2017-06-30T20:00:53.543Z,997.56
2017-06-30T20:10:53.544Z,997.56
2017-06-30T20:20:53.548Z,997.49
2017-06-30T20:30:53.546Z,997.55
2017-06-30T20:40:53.540Z,997.57
2017-06-30T20:50:53.570Z,997.64
2017-06-30T21:00:53.543Z,997.8
2017-06-30T21:10:53.556Z,997.77
2017-06-30T21:20:53.547Z,997.76
2017-06-30T21:30:53.540Z,997.76
2017-06-30T21:40:53.544Z,997.84
2017-06-30T21:50:53.549Z,997.85
2017-06-30T22:00:54.670Z,997.87
2017-06-30T22:10:53.554Z,997.89
2017-06-30T22:20:53.539Z,997.92
2017-06-30T22:30:53.543Z,997.92
2017-06-30T22:40:54.593Z,997.93
2017-06-30T22:50:53.537Z,997.88
2017-06-30T23:00:53.537Z,997.89
2017-06-30T23:10:53.549Z,997.83
2017-06-30T23:20:53.537Z,997.86
2017-06-30T23:30:53.547Z,997.88
2017-06-30T23:40:53.539Z,997.84
2017-06-30T23:50:53.543Z,997.8
